createdAt,value
2017-10-27T00:01:57.973Z,17.30
2017-10-27T00:04:25.424Z,16.07
2017-10-27T00:06:52.889Z,17.97
2017-10-27T00:09:20.339Z,17.67
2017-10-27T00:11:47.796Z,17.30
2017-10-27T00:14:15.237Z,17.60
2017-10-27T00:16:43.461Z,18.60
2017-10-27T00:19:10.907Z,18.53
2017-10-27T00:21:38.369Z,17.80
2017-10-27T00:24:05.811Z,16.93
2017-10-27T00:26:33.832Z,18.67
2017-10-27T00:29:04.195Z,20.07
2017-10-27T00:31:32.664Z,19.37
2017-10-27T00:34:00.873Z,19.60
2017-10-27T00:36:28.327Z,18.73
2017-10-27T00:38:55.780Z,19.93
2017-10-27T00:41:27.288Z,19.83
2017-10-27T00:43:54.728Z,18.23
2017-10-27T00:46:22.175Z,17.43
2017-10-27T00:48:49.653Z,17.87
2017-10-27T00:51:18.485Z,20.40
2017-10-27T00:53:46.041Z,19.20
2017-10-27T00:56:13.497Z,18.90
2017-10-27T00:58:42.401Z,19.27
2017-10-27T01:01:09.850Z,19.70
2017-10-27T01:03:37.308Z,17.93
2017-10-27T01:06:05.284Z,19.37
2017-10-27T01:08:32.735Z,17.27
2017-10-27T01:11:00.179Z,17.53
2017-10-27T01:13:27.639Z,18.37
2017-10-27T01:15:55.068Z,17.60
2017-10-27T01:18:23.287Z,19.90
2017-10-27T01:20:50.744Z,18.23
2017-10-27T01:23:18.199Z,16.63
2017-10-27T01:25:45.638Z,17.13
2017-10-27T01:28:13.099Z,20.07
2017-10-27T01:30:40.547Z,17.80
2017-10-27T01:33:07.990Z,18.73
2017-10-27T01:35:36.213Z,18.33
2017-10-27T01:38:04.095Z,17.50
2017-10-27T01:40:31.540Z,17.53
2017-10-27T01:42:58.990Z,18.00
2017-10-27T01:45:26.436Z,15.63
2017-10-27T01:47:54.309Z,16.70
2017-10-27T01:50:21.759Z,18.13
2017-10-27T01:52:51.635Z,15.67
2017-10-27T01:55:19.079Z,14.13
2017-10-27T01:57:46.974Z,15.40
2017-10-27T02:00:15.176Z,18.10
2017-10-27T02:02:42.615Z,16.17
2017-10-27T02:05:10.064Z,17.70
2017-10-27T02:07:38.700Z,15.47
2017-10-27T02:10:06.572Z,15.77
2017-10-27T02:12:34.023Z,15.70
2017-10-27T02:15:01.469Z,16.93
2017-10-27T02:17:28.902Z,15.97
2017-10-27T02:19:56.662Z,15.20
2017-10-27T02:22:24.104Z,15.50
2017-10-27T02:24:52.329Z,16.47
2017-10-27T02:27:19.774Z,16.97
2017-10-27T02:29:47.645Z,16.47
2017-10-27T02:32:15.141Z,17.67
2017-10-27T02:34:42.598Z,17.77
2017-10-27T02:37:10.310Z,17.33
2017-10-27T02:39:38.176Z,16.43
2017-10-27T02:42:05.624Z,18.07
2017-10-27T02:44:33.071Z,17.63
2017-10-27T02:47:00.512Z,17.70
2017-10-27T02:49:28.735Z,15.63
2017-10-27T02:51:56.185Z,15.60
2017-10-27T02:54:23.644Z,15.47
2017-10-27T02:56:51.108Z,10.03
2017-10-27T02:59:18.555Z,9.37
2017-10-27T03:01:46.014Z,7.77
2017-10-27T03:04:13.448Z,6.67
2017-10-27T03:06:40.897Z,4.30
2017-10-27T03:09:09.116Z,2.97
2017-10-27T03:11:36.571Z,2.67
2017-10-27T03:14:04.007Z,2.60
2017-10-27T03:16:31.708Z,1.90
2017-10-27T03:18:59.131Z,1.90
2017-10-27T03:21:26.583Z,1.70
2017-10-27T03:23:54.007Z,2.00
2017-10-27T03:26:22.224Z,1.70
2017-10-27T03:28:49.663Z,1.60
2017-10-27T03:31:17.094Z,1.43
2017-10-27T03:33:46.603Z,1.70
2017-10-27T03:36:14.830Z,1.50
2017-10-27T03:38:43.006Z,1.50
2017-10-27T03:41:10.458Z,1.63
2017-10-27T03:43:38.361Z,1.70
2017-10-27T03:46:06.258Z,1.77
2017-10-27T03:48:34.467Z,1.90
2017-10-27T03:51:01.918Z,1.87
2017-10-27T03:53:29.352Z,2.37
2017-10-27T03:55:56.803Z,2.37
2017-10-27T03:58:27.305Z,2.17
2017-10-27T04:00:54.746Z,1.97
2017-10-27T04:03:22.711Z,2.27
2017-10-27T04:05:52.751Z,2.10
2017-10-27T04:08:20.186Z,2.60
2017-10-27T04:10:47.643Z,2.63
2017-10-27T04:13:15.532Z,2.80
2017-10-27T04:15:43.524Z,3.23
2017-10-27T04:18:11.733Z,3.87
2017-10-27T04:20:39.202Z,4.40
2017-10-27T04:23:07.065Z,3.97
2017-10-27T04:25:34.510Z,3.60
2017-10-27T04:28:04.557Z,3.60
2017-10-27T04:30:32.105Z,4.27
2017-10-27T04:32:59.551Z,3.67
2017-10-27T04:35:27.000Z,4.43
2017-10-27T04:37:54.445Z,5.33
2017-10-27T04:40:21.893Z,5.63
2017-10-27T04:42:49.330Z,6.33
2017-10-27T04:45:17.558Z,7.33
2017-10-27T04:47:44.990Z,6.80
2017-10-27T04:50:12.442Z,7.20
2017-10-27T04:52:40.848Z,7.27
2017-10-27T04:55:08.315Z,7.73
2017-10-27T04:57:36.188Z,9.03
2017-10-27T05:00:03.616Z,8.67
2017-10-27T05:02:31.073Z,7.67
2017-10-27T05:04:59.021Z,9.73
2017-10-27T05:07:27.373Z,8.07
2017-10-27T05:09:54.830Z,7.53
2017-10-27T05:12:22.274Z,7.20
2017-10-27T05:14:49.716Z,6.70
2017-10-27T05:17:23.489Z,6.73
2017-10-27T05:19:57.509Z,5.87
2017-10-27T05:22:30.803Z,4.93
2017-10-27T05:24:58.236Z,5.17
2017-10-27T05:27:26.456Z,4.57
2017-10-27T05:29:53.878Z,5.47
2017-10-27T05:32:21.331Z,6.10
2017-10-27T05:34:48.771Z,6.00
2017-10-27T05:37:19.915Z,6.83
2017-10-27T05:39:48.110Z,6.63
2017-10-27T05:42:15.768Z,5.97
2017-10-27T05:44:45.240Z,6.03
2017-10-27T05:47:13.113Z,5.57
2017-10-27T05:49:40.544Z,5.50
2017-10-27T05:52:07.995Z,5.53
2017-10-27T05:54:35.438Z,3.73
2017-10-27T05:57:02.886Z,4.07
2017-10-27T05:59:30.332Z,3.60
2017-10-27T06:01:57.775Z,4.07
2017-10-27T06:04:25.235Z,3.57
2017-10-27T06:06:52.684Z,4.67
2017-10-27T06:09:20.885Z,5.70
2017-10-27T06:11:48.348Z,5.50
2017-10-27T06:14:15.781Z,5.10
2017-10-27T06:16:43.233Z,5.27
2017-10-27T06:19:11.431Z,5.27
2017-10-27T06:21:38.875Z,5.60
2017-10-27T06:24:06.316Z,5.43
2017-10-27T06:26:34.528Z,6.00
2017-10-27T06:29:03.001Z,5.10
2017-10-27T06:31:30.442Z,5.80
2017-10-27T06:33:58.430Z,5.57
2017-10-27T06:36:26.149Z,7.03
2017-10-27T06:38:54.008Z,5.93
2017-10-27T06:41:21.458Z,6.20
2017-10-27T06:43:48.893Z,6.13
2017-10-27T06:46:16.353Z,6.20
2017-10-27T06:48:43.800Z,5.70
2017-10-27T06:51:11.780Z,5.70
2017-10-27T06:53:39.211Z,5.60
2017-10-27T06:56:06.655Z,5.63
2017-10-27T06:58:34.099Z,6.00
2017-10-27T07:01:02.322Z,5.00
2017-10-27T07:03:29.756Z,4.93
2017-10-27T07:05:57.204Z,4.57
2017-10-27T07:08:24.642Z,5.33
2017-10-27T07:10:53.392Z,4.60
2017-10-27T07:13:20.827Z,5.00
2017-10-27T07:15:49.022Z,5.10
2017-10-27T07:18:16.469Z,4.77
2017-10-27T07:20:44.359Z,4.43
2017-10-27T07:23:11.808Z,3.87
2017-10-27T07:25:39.252Z,4.30
2017-10-27T07:28:06.708Z,3.77
2017-10-27T07:30:34.558Z,5.20
2017-10-27T07:33:02.024Z,3.97
2017-10-27T07:35:29.471Z,4.30
2017-10-27T07:37:56.926Z,4.80
2017-10-27T07:40:24.932Z,4.40
2017-10-27T07:42:52.378Z,3.70
2017-10-27T07:45:19.823Z,4.53
2017-10-27T07:47:47.266Z,4.80
2017-10-27T07:50:14.710Z,4.90
2017-10-27T07:52:42.155Z,5.03
2017-10-27T07:55:09.592Z,4.30
2017-10-27T07:57:38.528Z,4.60
2017-10-27T08:00:05.977Z,4.40
2017-10-27T08:02:34.012Z,4.37
2017-10-27T08:05:02.217Z,4.23
2017-10-27T08:07:29.673Z,3.97
2017-10-27T08:09:58.187Z,4.37
2017-10-27T08:12:25.630Z,3.40
2017-10-27T08:14:53.067Z,3.23
2017-10-27T08:17:20.523Z,3.67
2017-10-27T08:19:47.963Z,3.50
2017-10-27T08:22:16.711Z,2.83
2017-10-27T08:24:44.153Z,3.33
2017-10-27T08:27:11.599Z,4.13
2017-10-27T08:29:39.044Z,2.90
2017-10-27T08:32:06.492Z,3.83
2017-10-27T08:34:33.945Z,3.90
2017-10-27T08:37:02.146Z,3.80
2017-10-27T08:39:29.579Z,4.00
2017-10-27T08:41:57.025Z,4.10
2017-10-27T08:44:25.251Z,4.00
2017-10-27T08:46:52.678Z,3.73
2017-10-27T08:49:20.144Z,4.30
2017-10-27T08:51:48.339Z,3.53
2017-10-27T08:54:15.772Z,4.03
2017-10-27T08:56:43.225Z,4.27
2017-10-27T08:59:10.662Z,4.43
2017-10-27T09:01:39.683Z,3.63
2017-10-27T09:04:07.118Z,3.93
2017-10-27T09:06:34.563Z,4.27
2017-10-27T09:09:02.796Z,4.23
2017-10-27T09:11:30.242Z,3.17
2017-10-27T09:13:57.671Z,3.40
2017-10-27T09:16:25.131Z,3.37
2017-10-27T09:18:52.682Z,3.07
2017-10-27T09:21:20.128Z,2.70
2017-10-27T09:23:48.322Z,3.20
2017-10-27T09:26:15.780Z,2.60
2017-10-27T09:28:43.222Z,2.90
2017-10-27T09:31:11.527Z,3.10
2017-10-27T09:33:38.966Z,2.77
2017-10-27T09:36:06.403Z,2.10
2017-10-27T09:38:35.516Z,2.07
2017-10-27T09:41:02.956Z,2.10
2017-10-27T09:43:31.171Z,2.30
2017-10-27T09:45:58.604Z,1.83
2017-10-27T09:48:26.055Z,2.40
2017-10-27T09:50:54.258Z,1.97
2017-10-27T09:53:21.698Z,1.90
2017-10-27T09:55:49.501Z,1.60
2017-10-27T09:58:16.936Z,1.73
2017-10-27T10:00:44.381Z,1.60
2017-10-27T10:03:11.823Z,1.47
2017-10-27T10:05:40.023Z,1.60
2017-10-27T10:08:07.458Z,1.30
2017-10-27T10:10:34.895Z,1.50
2017-10-27T10:13:02.347Z,1.27
2017-10-27T10:15:29.787Z,1.60
2017-10-27T10:17:57.239Z,1.70
2017-10-27T10:20:24.675Z,1.40
2017-10-27T10:22:52.122Z,1.30
2017-10-27T10:25:19.556Z,1.30
2017-10-27T10:27:47.003Z,1.30
2017-10-27T10:30:15.210Z,1.30
2017-10-27T10:32:42.662Z,1.03
2017-10-27T10:35:10.095Z,1.12
2017-10-27T10:37:38.314Z,1.30
2017-10-27T10:40:05.747Z,1.43
2017-10-27T10:42:33.191Z,1.00
2017-10-27T10:45:00.631Z,1.37
2017-10-27T10:47:28.857Z,1.50
2017-10-27T10:49:56.282Z,1.20
2017-10-27T10:52:24.175Z,1.27
2017-10-27T10:54:51.614Z,0.90
2017-10-27T10:57:19.916Z,1.08
2017-10-27T10:59:47.358Z,0.95
2017-10-27T11:02:14.798Z,1.17
2017-10-27T11:04:42.234Z,1.17
2017-10-27T11:07:09.684Z,1.12
2017-10-27T11:09:37.194Z,1.42
2017-10-27T11:12:04.654Z,1.00
2017-10-27T11:14:32.099Z,1.30
2017-10-27T11:16:59.550Z,1.00
2017-10-27T11:19:28.044Z,1.00
2017-10-27T11:21:55.472Z,1.07
2017-10-27T11:24:23.746Z,1.07
2017-10-27T11:26:52.004Z,1.23
2017-10-27T11:29:19.445Z,1.12
2017-10-27T11:31:46.933Z,0.95
2017-10-27T11:34:15.144Z,1.00
2017-10-27T11:36:42.651Z,0.80
2017-10-27T11:39:10.502Z,1.20
2017-10-27T11:41:37.943Z,1.67
2017-10-27T11:44:05.648Z,1.35
2017-10-27T11:46:36.620Z,1.80
2017-10-27T11:49:04.078Z,1.27
2017-10-27T11:51:31.527Z,1.00
2017-10-27T11:53:58.975Z,1.33
2017-10-27T11:56:26.927Z,1.08
2017-10-27T11:59:04.019Z,1.40
2017-10-27T12:01:31.447Z,1.27
2017-10-27T12:03:58.881Z,1.50
2017-10-27T12:06:27.099Z,1.53
2017-10-27T12:08:54.544Z,1.37
2017-10-27T12:11:22.005Z,1.30
2017-10-27T12:13:49.449Z,1.70
2017-10-27T12:16:16.890Z,1.70
2017-10-27T12:18:45.595Z,1.60
2017-10-27T12:21:13.029Z,1.30
2017-10-27T12:23:41.244Z,1.40
2017-10-27T12:26:08.666Z,1.70
2017-10-27T12:28:37.599Z,1.35
2017-10-27T12:31:05.081Z,1.30
2017-10-27T12:33:32.530Z,1.12
2017-10-27T12:35:59.978Z,1.17
2017-10-27T12:38:27.411Z,1.27
2017-10-27T12:40:54.843Z,1.05
2017-10-27T12:43:23.574Z,1.52
2017-10-27T12:45:51.007Z,1.45
2017-10-27T12:48:19.330Z,1.50
2017-10-27T12:50:46.886Z,1.37
2017-10-27T12:53:14.339Z,1.52
2017-10-27T12:55:41.770Z,1.27
2017-10-27T12:58:09.327Z,1.20
2017-10-27T13:00:36.738Z,1.20
2017-10-27T13:03:04.948Z,1.30
2017-10-27T13:05:32.380Z,1.60
2017-10-27T13:08:00.844Z,1.48
2017-10-27T13:10:28.766Z,1.62
2017-10-27T13:12:56.209Z,1.60
2017-10-27T13:15:24.558Z,1.10
2017-10-27T13:17:53.036Z,1.77
2017-10-27T13:20:20.469Z,1.55
2017-10-27T13:22:48.843Z,1.62
2017-10-27T13:25:16.262Z,1.98
2017-10-27T13:27:43.704Z,1.70
2017-10-27T13:30:12.454Z,1.80
2017-10-27T13:32:39.886Z,2.00
2017-10-27T13:35:07.626Z,1.80
2017-10-27T13:37:35.068Z,1.77
2017-10-27T13:40:03.277Z,1.93
2017-10-27T13:42:30.714Z,1.60
2017-10-27T13:45:00.372Z,1.93
2017-10-27T13:47:28.678Z,2.40
2017-10-27T13:49:56.886Z,1.93
2017-10-27T13:52:24.327Z,2.17
2017-10-27T13:54:51.758Z,2.47
2017-10-27T13:57:20.507Z,1.93
2017-10-27T13:59:55.243Z,2.23
2017-10-27T14:02:23.206Z,1.83
2017-10-27T14:04:50.678Z,1.90
2017-10-27T14:07:18.118Z,1.83
2017-10-27T14:09:45.565Z,1.87
2017-10-27T14:12:13.019Z,2.53
2017-10-27T14:14:40.956Z,1.97
2017-10-27T14:17:09.598Z,2.07
2017-10-27T14:19:37.030Z,2.00
2017-10-27T14:22:04.463Z,2.20
2017-10-27T14:24:31.919Z,2.27
2017-10-27T14:26:59.351Z,2.20
2017-10-27T14:29:27.590Z,2.40
2017-10-27T14:31:55.045Z,1.60
2017-10-27T14:34:22.483Z,1.77
2017-10-27T14:36:49.916Z,1.80
2017-10-27T14:39:18.114Z,2.00
2017-10-27T14:41:45.543Z,1.63
2017-10-27T14:44:13.759Z,1.53
2017-10-27T14:46:57.094Z,2.00
2017-10-27T14:49:26.784Z,1.50
2017-10-27T14:51:54.223Z,1.80
2017-10-27T14:54:21.678Z,2.00
2017-10-27T14:56:50.630Z,1.73
2017-10-27T14:59:19.487Z,2.20
2017-10-27T15:01:47.175Z,2.60
2017-10-27T15:04:19.848Z,2.17
2017-10-27T15:06:47.321Z,2.10
2017-10-27T15:09:14.790Z,2.27
2017-10-27T15:11:42.476Z,2.20
2017-10-27T15:14:10.692Z,1.80
2017-10-27T15:16:38.135Z,1.97
2017-10-27T15:19:08.964Z,1.90
2017-10-27T15:21:36.406Z,2.10
2017-10-27T15:24:04.623Z,1.90
2017-10-27T15:26:32.063Z,1.77
2017-10-27T15:29:00.802Z,1.77
2017-10-27T15:31:28.245Z,1.90
2017-10-27T15:33:55.716Z,1.83
2017-10-27T15:36:25.618Z,2.03
2017-10-27T15:38:53.525Z,1.80
2017-10-27T15:41:21.495Z,1.80
2017-10-27T15:43:49.372Z,1.43
2017-10-27T15:46:16.823Z,1.60
2017-10-27T15:48:45.066Z,1.50
2017-10-27T15:51:12.542Z,1.50
2017-10-27T15:53:40.408Z,1.40
2017-10-27T15:56:08.617Z,1.60
2017-10-27T15:58:36.767Z,1.97
2017-10-27T16:03:58.429Z,1.57
2017-10-27T16:06:25.857Z,1.50
2017-10-27T16:08:54.061Z,1.60
2017-10-27T16:11:22.803Z,2.07
2017-10-27T16:13:50.651Z,1.70
2017-10-27T16:16:18.823Z,1.50
2017-10-27T16:18:46.977Z,1.70
2017-10-27T16:21:14.408Z,1.90
2017-10-27T16:23:41.858Z,1.83
2017-10-27T16:26:10.046Z,1.50
2017-10-27T16:28:39.241Z,1.73
2017-10-27T16:31:06.670Z,1.60
2017-10-27T16:33:34.876Z,1.90
2017-10-27T16:36:02.506Z,1.90
2017-10-27T16:38:30.706Z,1.30
2017-10-27T16:40:58.413Z,1.80
2017-10-27T16:43:25.864Z,1.30
2017-10-27T16:45:54.791Z,1.63
2017-10-27T16:48:22.214Z,1.67
2017-10-27T16:50:49.639Z,2.30
2017-10-27T16:53:17.082Z,1.57
2017-10-27T16:55:56.159Z,1.60
2017-10-27T16:58:24.615Z,1.80
2017-10-27T17:00:52.442Z,1.67
2017-10-27T17:03:20.645Z,2.10
2017-10-27T17:05:48.062Z,2.60
2017-10-27T17:08:15.499Z,2.03
2017-10-27T17:10:42.927Z,2.10
2017-10-27T17:13:10.362Z,2.50
2017-10-27T17:15:38.159Z,2.30
2017-10-27T17:18:05.603Z,2.30
2017-10-27T17:20:33.106Z,2.37
2017-10-27T17:23:06.919Z,2.10
2017-10-27T17:25:34.373Z,2.90
2017-10-27T17:28:01.919Z,2.50
2017-10-27T17:30:29.373Z,2.53
2017-10-27T17:32:56.820Z,2.40
2017-10-27T17:35:24.691Z,2.07
2017-10-27T17:37:52.170Z,2.10
2017-10-27T17:40:19.618Z,2.10
2017-10-27T17:42:47.591Z,2.47
2017-10-27T17:45:15.022Z,2.10
2017-10-27T17:47:42.472Z,1.83
2017-10-27T17:50:10.114Z,2.47
2017-10-27T17:52:38.494Z,2.30
2017-10-27T17:55:05.953Z,2.10
2017-10-27T17:57:33.675Z,2.23
2017-10-27T18:00:01.655Z,2.57
2017-10-27T18:02:29.896Z,2.10
2017-10-27T18:04:57.376Z,2.53
2017-10-27T18:07:26.123Z,3.03
2017-10-27T18:09:53.558Z,3.37
2017-10-27T18:12:20.990Z,3.33
2017-10-27T18:14:49.748Z,3.03
2017-10-27T18:17:17.927Z,3.37
2017-10-27T18:19:45.354Z,3.10
2017-10-27T18:22:12.794Z,4.57
2017-10-27T18:24:40.215Z,4.27
2017-10-27T18:27:07.649Z,4.03
2017-10-27T18:29:35.066Z,4.60
2017-10-27T18:32:03.091Z,3.90
2017-10-27T18:34:30.521Z,4.30
2017-10-27T18:36:57.954Z,3.50
2017-10-27T18:39:25.388Z,3.80
2017-10-27T18:41:53.582Z,4.00
2017-10-27T18:44:21.007Z,4.33
2017-10-27T18:46:49.205Z,4.03
2017-10-27T18:49:16.626Z,3.63
2017-10-27T18:51:44.058Z,4.13
2017-10-27T18:54:11.507Z,3.63
2017-10-27T18:56:38.950Z,3.57
2017-10-27T18:59:06.376Z,4.60
2017-10-27T19:01:34.580Z,4.10
2017-10-27T19:04:02.012Z,3.60
2017-10-27T19:06:30.622Z,3.40
2017-10-27T19:08:58.088Z,4.37
2017-10-27T19:11:25.487Z,3.77
2017-10-27T19:13:52.925Z,4.20
2017-10-27T19:16:20.359Z,4.90
2017-10-27T19:18:47.811Z,4.67
2017-10-27T19:21:15.245Z,5.17
2017-10-27T19:23:43.442Z,4.83
2017-10-27T19:26:10.866Z,4.97
2017-10-27T19:28:39.067Z,5.50
2017-10-27T19:31:07.201Z,4.53
2017-10-27T19:33:35.408Z,4.23
2017-10-27T19:36:02.836Z,4.40
2017-10-27T19:38:31.050Z,5.13
2017-10-27T19:40:58.475Z,6.77
2017-10-27T19:43:26.683Z,6.37
2017-10-27T19:45:56.852Z,5.80
2017-10-27T19:48:24.287Z,5.10
2017-10-27T19:50:51.720Z,5.43
2017-10-27T19:53:19.167Z,4.90
2017-10-27T19:55:46.590Z,5.07
2017-10-27T19:58:15.330Z,4.57
2017-10-27T20:00:42.760Z,5.00
2017-10-27T20:03:10.194Z,4.40
2017-10-27T20:05:38.386Z,4.03
2017-10-27T20:08:05.827Z,4.03
2017-10-27T20:10:34.014Z,8.30
2017-10-27T20:13:03.394Z,7.13
2017-10-27T20:15:30.803Z,4.27
2017-10-27T20:17:58.244Z,4.23
2017-10-27T20:20:26.642Z,3.90
2017-10-27T20:22:54.082Z,4.30
2017-10-27T20:25:21.508Z,3.43
2017-10-27T20:27:49.715Z,2.83
2017-10-27T20:30:17.148Z,3.07
2017-10-27T20:32:45.369Z,2.77
2017-10-27T20:35:12.802Z,2.63
2017-10-27T20:37:40.247Z,3.37
2017-10-27T20:40:07.685Z,3.10
2017-10-27T20:42:35.880Z,3.30
2017-10-27T20:45:03.320Z,3.33
2017-10-27T20:47:31.521Z,3.50
2017-10-27T20:49:58.963Z,3.70
2017-10-27T20:52:26.391Z,3.27
2017-10-27T20:54:53.832Z,3.70
2017-10-27T20:57:21.255Z,3.30
2017-10-27T20:59:49.698Z,4.37
2017-10-27T21:02:18.893Z,3.73
2017-10-27T21:04:48.456Z,3.63
2017-10-27T21:07:15.874Z,2.93
2017-10-27T21:09:45.890Z,3.27
2017-10-27T21:12:13.329Z,3.93
2017-10-27T21:14:41.574Z,3.73
2017-10-27T21:17:09.004Z,3.50
2017-10-27T21:19:36.456Z,3.97
2017-10-27T21:22:18.144Z,3.50
2017-10-27T21:24:45.593Z,3.07
2017-10-27T21:27:13.020Z,3.10
2017-10-27T21:29:41.229Z,3.73
2017-10-27T21:32:09.202Z,3.87
2017-10-27T21:34:37.358Z,3.57
2017-10-27T21:37:04.779Z,3.27
2017-10-27T21:39:32.214Z,3.33
2017-10-27T21:41:59.638Z,3.83
2017-10-27T21:44:27.088Z,3.50
2017-10-27T21:46:54.858Z,3.27
2017-10-27T21:49:22.311Z,3.20
2017-10-27T21:51:49.735Z,3.57
2017-10-27T21:54:17.162Z,3.57
2017-10-27T21:56:44.595Z,3.60
2017-10-27T21:59:12.020Z,3.60
2017-10-27T22:01:40.231Z,3.77
2017-10-27T22:04:14.268Z,2.90
2017-10-27T22:06:41.708Z,3.07
2017-10-27T22:09:09.135Z,3.63
2017-10-27T22:11:37.199Z,2.73
2017-10-27T22:14:05.398Z,3.73
2017-10-27T22:16:33.266Z,3.00
2017-10-27T22:19:00.675Z,2.93
2017-10-27T22:21:28.107Z,2.70
2017-10-27T22:23:55.552Z,3.43
2017-10-27T22:26:23.206Z,3.00
2017-10-27T22:28:51.147Z,3.70
2017-10-27T22:31:19.751Z,2.40
2017-10-27T22:33:47.161Z,2.90
2017-10-27T22:36:14.590Z,2.73
2017-10-27T22:38:42.019Z,2.57
2017-10-27T22:41:09.887Z,3.27
2017-10-27T22:43:37.316Z,3.23
2017-10-27T22:46:05.567Z,2.97
2017-10-27T22:48:32.991Z,3.13
2017-10-27T22:51:00.838Z,2.97
2017-10-27T22:53:28.263Z,2.60
2017-10-27T22:55:56.461Z,2.80
2017-10-27T22:58:23.890Z,2.73
2017-10-27T23:00:52.097Z,2.20
2017-10-27T23:03:19.526Z,2.00
2017-10-27T23:05:53.451Z,2.77
2017-10-27T23:08:21.006Z,2.83
2017-10-27T23:10:48.435Z,2.40
2017-10-27T23:13:15.995Z,2.63
2017-10-27T23:15:44.151Z,2.87
2017-10-27T23:18:11.586Z,2.80
2017-10-27T23:20:39.028Z,2.33
2017-10-27T23:23:06.475Z,2.40
2017-10-27T23:25:33.910Z,2.00
2017-10-27T23:28:02.125Z,1.80
2017-10-27T23:30:29.976Z,2.30
2017-10-27T23:32:57.411Z,2.83
2017-10-27T23:35:25.607Z,3.27
2017-10-27T23:37:53.056Z,2.67
2017-10-27T23:40:21.254Z,3.23
2017-10-27T23:42:48.691Z,2.80
2017-10-27T23:45:16.128Z,2.80
2017-10-27T23:47:43.561Z,2.50
2017-10-27T23:50:11.003Z,3.40
2017-10-27T23:52:38.426Z,2.60
2017-10-27T23:55:05.877Z,2.90
2017-10-27T23:57:34.080Z,3.93
